Time;durP1;ratioP1;P1;durP2;ratioP2;P2;SDS_P1;SDS_P2;PMS_P1;PMS_P2;Temp;Humidity;BMP_temperature;BMP_pressure;BME280_temperature;BME280_humidity;BME280_pressure;Samples;Min_cycle;Max_cycle;Signal;HPM_P1;HPM_P2
2021/12/06 00:01:54;;;;;;;12.48;6.80;;;5.30;99.90;;;;;;5055089;28;20162;-45
2021/12/06 00:04:27;;;;;;;9.15;5.53;;;5.30;99.90;;;;;;5054861;28;20220;-44
2021/12/06 00:06:57;;;;;;;5.88;4.88;;;5.30;99.90;;;;;;5055254;28;20556;-43
2021/12/06 00:09:25;;;;;;;7.97;5.60;;;5.30;99.90;;;;;;5055096;28;20272;-46
2021/12/06 00:11:57;;;;;;;9.60;5.70;;;5.30;99.90;;;;;;5054850;28;20261;-43
2021/12/06 00:14:27;;;;;;;7.40;5.75;;;5.30;99.90;;;;;;5054779;28;20178;-43
2021/12/06 00:16:54;;;;;;;6.50;5.07;;;5.30;99.90;;;;;;5055329;28;20537;-44
2021/12/06 00:19:20;;;;;;;7.15;5.50;;;5.30;99.90;;;;;;5054764;28;20246;-44
2021/12/06 00:21:46;;;;;;;11.25;5.32;;;5.30;99.90;;;;;;5054896;28;20194;-45
2021/12/06 00:24:12;;;;;;;7.00;5.07;;;5.30;99.90;;;;;;5054822;28;20298;-44
2021/12/06 00:26:37;;;;;;;12.55;6.78;;;5.30;99.90;;;;;;5054887;28;20532;-44
2021/12/06 00:29:03;;;;;;;9.45;6.00;;;5.30;99.90;;;;;;5054875;28;20185;-44
2021/12/06 00:31:33;;;;;;;8.85;5.18;;;5.20;99.90;;;;;;5054731;28;20242;-44
2021/12/06 00:34:05;;;;;;;8.15;4.47;;;5.20;99.90;;;;;;5054984;28;20253;-45
2021/12/06 00:36:32;;;;;;;10.15;4.90;;;5.20;99.90;;;;;;5054727;28;20210;-43
2021/12/06 00:39:00;;;;;;;6.85;4.90;;;5.10;99.90;;;;;;5054553;28;20657;-44
2021/12/06 00:41:26;;;;;;;7.22;5.03;;;5.10;99.90;;;;;;5054918;28;20217;-44
2021/12/06 00:43:52;;;;;;;10.50;5.90;;;5.10;99.90;;;;;;5054736;28;20658;-44
2021/12/06 00:46:19;;;;;;;8.30;5.28;;;5.00;99.90;;;;;;5054561;28;20167;-44
2021/12/06 00:48:45;;;;;;;9.20;5.43;;;5.10;99.90;;;;;;5054630;28;20531;-44
2021/12/06 00:51:12;;;;;;;7.47;5.07;;;5.10;99.90;;;;;;5053701;28;20167;-43
2021/12/06 00:53:39;;;;;;;9.32;5.38;;;5.10;99.90;;;;;;5054620;28;20262;-45
2021/12/06 00:56:05;;;;;;;7.43;5.50;;;5.10;99.90;;;;;;5054475;28;20170;-43
2021/12/06 00:58:30;;;;;;;8.38;5.28;;;5.20;99.90;;;;;;5054226;28;20652;-44
2021/12/06 01:00:56;;;;;;;7.88;5.03;;;5.10;99.90;;;;;;5054494;28;20174;-44
2021/12/06 01:03:28;;;;;;;7.80;5.30;;;5.20;99.90;;;;;;5054106;28;20174;-44
2021/12/06 01:05:54;;;;;;;7.18;5.50;;;5.20;99.90;;;;;;5054384;28;20547;-43
2021/12/06 01:08:20;;;;;;;6.70;4.82;;;5.10;99.90;;;;;;5053829;28;20257;-44
2021/12/06 01:10:47;;;;;;;7.45;4.85;;;5.00;99.90;;;;;;5054225;28;20252;-43
2021/12/06 01:13:13;;;;;;;8.27;4.90;;;5.00;99.90;;;;;;5054268;28;20167;-44
2021/12/06 01:15:39;;;;;;;7.10;4.88;;;5.00;99.90;;;;;;5053868;28;20216;-44
2021/12/06 01:18:07;;;;;;;7.30;4.88;;;5.00;99.90;;;;;;5054134;28;20175;-43
2021/12/06 01:20:42;;;;;;;7.25;4.97;;;5.00;99.90;;;;;;5054073;28;20217;-45
2021/12/06 01:23:12;;;;;;;6.68;4.90;;;4.90;99.90;;;;;;5054079;28;20170;-44
2021/12/06 01:25:58;;;;;;;10.27;4.72;;;5.00;99.90;;;;;;5053903;28;20211;-44
2021/12/06 01:31:06;;;;;;;9.27;5.20;;;5.00;99.90;;;;;;5054241;28;20171;-44
2021/12/06 01:33:42;;;;;;;5.75;4.97;;;5.10;99.90;;;;;;5053782;28;20166;-44
2021/12/06 01:41:34;;;;;;;6.78;5.15;;;5.00;99.90;;;;;;5053755;28;20365;-44
2021/12/06 01:44:16;;;;;;;8.15;5.03;;;5.00;99.90;;;;;;5053439;28;20736;-45
2021/12/06 01:46:52;;;;;;;5.80;4.82;;;5.00;99.90;;;;;;5053419;28;20630;-45
2021/12/06 01:49:20;;;;;;;6.35;4.85;;;5.00;99.90;;;;;;5053300;28;20167;-45
2021/12/06 01:51:46;;;;;;;6.45;4.70;;;5.10;99.90;;;;;;5053244;28;20626;-45
2021/12/06 01:54:13;;;;;;;6.85;5.32;;;5.10;99.90;;;;;;5053182;28;20258;-45
2021/12/06 01:56:39;;;;;;;5.60;5.10;;;5.10;99.90;;;;;;5053209;28;20253;-45
2021/12/06 01:59:05;;;;;;;7.95;4.78;;;5.10;99.90;;;;;;5053117;28;20689;-45
2021/12/06 02:01:31;;;;;;;6.50;5.45;;;5.00;99.90;;;;;;5053331;28;20566;-45
2021/12/06 02:03:57;;;;;;;7.85;5.40;;;5.00;99.90;;;;;;5051903;28;20198;-44
2021/12/06 02:06:26;;;;;;;6.30;5.28;;;5.00;99.90;;;;;;5053312;28;20163;-45
2021/12/06 02:08:52;;;;;;;7.50;6.03;;;5.00;99.90;;;;;;5053081;28;20309;-44
2021/12/06 02:11:19;;;;;;;9.13;5.93;;;5.00;99.90;;;;;;5052862;28;20167;-45
2021/12/06 02:13:59;;;;;;;7.50;5.25;;;4.90;99.90;;;;;;5053047;28;20194;-45
2021/12/06 02:16:34;;;;;;;8.60;5.43;;;4.80;99.90;;;;;;5053373;28;20179;-46
2021/12/06 02:19:04;;;;;;;7.13;5.70;;;4.80;99.90;;;;;;5052602;28;20622;-44
2021/12/06 02:21:33;;;;;;;8.55;5.45;;;4.90;99.90;;;;;;5052695;28;20162;-44
2021/12/06 02:24:05;;;;;;;8.13;5.50;;;4.90;99.90;;;;;;5052733;28;20673;-45
2021/12/06 02:26:30;;;;;;;9.25;6.20;;;4.90;99.90;;;;;;5052530;28;20693;-44
2021/12/06 02:28:56;;;;;;;7.47;6.00;;;4.90;99.90;;;;;;5052755;28;20205;-46
2021/12/06 02:31:24;;;;;;;7.72;6.05;;;4.90;99.90;;;;;;5067810;28;20170;-44
2021/12/06 02:33:50;;;;;;;11.90;6.10;;;4.90;99.90;;;;;;5067873;28;20174;-44
2021/12/06 02:36:16;;;;;;;7.32;5.55;;;5.00;99.90;;;;;;5052292;28;20642;-44
2021/12/06 02:38:43;;;;;;;7.60;6.05;;;5.00;99.90;;;;;;5052320;28;20175;-45
2021/12/06 02:41:09;;;;;;;10.15;5.68;;;5.00;99.90;;;;;;5052336;28;20645;-45
2021/12/06 02:43:36;;;;;;;6.95;5.50;;;5.00;99.90;;;;;;5052386;28;20248;-45
2021/12/06 02:46:03;;;;;;;9.73;5.68;;;5.00;99.90;;;;;;5052459;28;20229;-44
2021/12/06 02:48:28;;;;;;;8.30;5.57;;;4.90;99.90;;;;;;5052419;28;20253;-45
2021/12/06 02:50:56;;;;;;;6.93;5.50;;;4.80;99.90;;;;;;5052740;28;20254;-45
2021/12/06 02:53:24;;;;;;;7.32;5.50;;;4.90;99.90;;;;;;5052427;28;20175;-44
2021/12/06 02:55:53;;;;;;;8.30;5.43;;;4.80;99.90;;;;;;5052379;28;20198;-45
2021/12/06 03:01:02;;;;;;;7.57;5.78;;;4.80;99.90;;;;;;5052395;28;20174;-45
2021/12/06 03:03:28;;;;;;;10.30;6.28;;;4.80;99.90;;;;;;5051909;28;20185;-44
2021/12/06 03:05:55;;;;;;;9.57;5.93;;;4.80;99.90;;;;;;5052247;28;20543;-44
2021/12/06 03:08:53;;;;;;;8.52;6.47;;;4.80;99.90;;;;;;5051992;28;20175;-44
2021/12/06 03:11:29;;;;;;;7.38;5.53;;;4.80;99.90;;;;;;5052172;28;20182;-45
2021/12/06 03:13:55;;;;;;;7.93;6.25;;;4.80;99.90;;;;;;5052033;28;20197;-44
2021/12/06 03:16:21;;;;;;;6.75;5.38;;;4.90;99.90;;;;;;5051832;28;20635;-45
2021/12/06 03:18:51;;;;;;;8.40;5.13;;;4.80;99.90;;;;;;5051827;28;20658;-44
2021/12/06 03:21:18;;;;;;;8.80;5.50;;;4.90;99.90;;;;;;5051742;28;20198;-44
2021/12/06 03:23:45;;;;;;;9.88;5.72;;;4.80;99.90;;;;;;5051717;28;20202;-45
2021/12/06 03:26:12;;;;;;;8.23;6.22;;;4.90;99.90;;;;;;5051673;28;20583;-45
2021/12/06 03:28:40;;;;;;;8.88;6.15;;;4.90;99.90;;;;;;5051783;28;20253;-45
2021/12/06 03:31:06;;;;;;;6.95;5.60;;;4.90;99.90;;;;;;5067102;28;20171;-44
2021/12/06 03:33:34;;;;;;;8.30;5.80;;;4.90;99.90;;;;;;5051920;28;20170;-45
2021/12/06 03:36:01;;;;;;;8.20;5.88;;;4.90;99.90;;;;;;5051634;28;20575;-45
2021/12/06 03:38:26;;;;;;;7.35;5.75;;;4.80;99.90;;;;;;5051825;28;20170;-44
2021/12/06 03:40:52;;;;;;;10.13;6.50;;;4.90;99.90;;;;;;5051918;28;20549;-44
2021/12/06 03:43:18;;;;;;;10.40;6.82;;;4.80;99.90;;;;;;5051633;28;20211;-44
2021/12/06 03:45:43;;;;;;;8.68;6.50;;;4.80;99.90;;;;;;5051446;28;20246;-45
2021/12/06 03:48:09;;;;;;;7.60;5.90;;;4.70;99.90;;;;;;5051667;28;20560;-44
2021/12/06 03:50:34;;;;;;;12.50;6.43;;;4.70;99.90;;;;;;5051541;28;20170;-44
2021/12/06 03:53:00;;;;;;;10.52;7.78;;;4.70;99.90;;;;;;5051600;28;20731;-45
2021/12/06 03:55:26;;;;;;;9.63;6.93;;;4.70;99.90;;;;;;5051860;28;20166;-44
2021/12/06 03:57:51;;;;;;;9.30;7.00;;;4.80;99.90;;;;;;5051492;28;20176;-44
2021/12/06 04:00:17;;;;;;;11.10;7.47;;;4.80;99.90;;;;;;5051440;28;20216;-44
2021/12/06 04:02:44;;;;;;;9.20;7.82;;;4.80;99.90;;;;;;5051724;28;20190;-44
2021/12/06 04:05:09;;;;;;;9.88;7.88;;;4.80;99.90;;;;;;5066862;28;20293;-46
2021/12/06 04:07:35;;;;;;;10.15;7.25;;;4.80;99.90;;;;;;5051418;28;20249;-44
2021/12/06 04:10:03;;;;;;;8.85;6.95;;;4.80;99.90;;;;;;5051044;28;20223;-44
2021/12/06 04:12:28;;;;;;;9.68;6.82;;;4.70;99.90;;;;;;5051614;28;20170;-44
2021/12/06 04:14:54;;;;;;;9.90;7.00;;;4.70;99.90;;;;;;5051606;28;20576;-44
2021/12/06 04:17:20;;;;;;;10.13;7.40;;;4.60;99.90;;;;;;5051320;28;20213;-44
2021/12/06 04:19:45;;;;;;;10.38;6.80;;;4.50;99.90;;;;;;5051239;28;20551;-44
2021/12/06 04:22:12;;;;;;;7.90;6.78;;;4.50;99.90;;;;;;5051453;28;20167;-44
2021/12/06 04:24:38;;;;;;;8.07;6.55;;;4.50;99.90;;;;;;5051408;28;20249;-45
2021/12/06 04:27:15;;;;;;;9.00;7.00;;;4.50;99.90;;;;;;5053470;28;20186;-44
2021/12/06 04:29:48;;;;;;;9.00;6.53;;;4.60;99.90;;;;;;5055030;28;20232;-45
2021/12/06 04:32:15;;;;;;;7.18;6.22;;;4.50;99.90;;;;;;5070152;28;20634;-44
2021/12/06 04:34:41;;;;;;;9.77;6.68;;;4.60;99.90;;;;;;5054694;28;20166;-44
2021/12/06 04:37:07;;;;;;;8.93;6.57;;;4.60;99.90;;;;;;5054924;28;20570;-45
2021/12/06 04:39:34;;;;;;;8.60;6.82;;;4.60;99.90;;;;;;5054603;28;20183;-45
2021/12/06 04:42:00;;;;;;;8.55;6.70;;;4.60;99.90;;;;;;5054828;28;20249;-44
2021/12/06 04:44:25;;;;;;;11.02;7.18;;;4.50;99.90;;;;;;5054783;28;20285;-45
2021/12/06 04:46:52;;;;;;;10.75;6.75;;;4.50;99.90;;;;;;5054441;28;20163;-44
2021/12/06 04:49:17;;;;;;;10.55;6.88;;;4.40;99.90;;;;;;5054530;28;20221;-45
2021/12/06 04:51:46;;;;;;;9.35;6.90;;;4.40;99.90;;;;;;5054257;28;20171;-45
2021/12/06 04:54:14;;;;;;;11.50;7.35;;;4.30;99.90;;;;;;5054288;28;20220;-45
2021/12/06 04:56:49;;;;;;;11.60;8.07;;;4.40;99.90;;;;;;5054325;28;20159;-45
2021/12/06 04:59:31;;;;;;;10.38;7.20;;;4.40;99.90;;;;;;5054288;28;20223;-45
2021/12/06 05:01:59;;;;;;;13.68;7.90;;;4.50;99.90;;;;;;5054444;28;20641;-44
2021/12/06 05:04:29;;;;;;;10.73;7.72;;;4.50;99.90;;;;;;5069746;28;20232;-45
2021/12/06 05:07:12;;;;;;;12.10;7.65;;;4.40;99.90;;;;;;5054425;28;20173;-44
2021/12/06 05:09:42;;;;;;;14.50;7.85;;;4.40;99.90;;;;;;5053938;28;20249;-45
2021/12/06 05:12:10;;;;;;;11.95;7.57;;;4.50;99.90;;;;;;5053984;28;20174;-44
2021/12/06 05:14:36;;;;;;;10.10;7.40;;;4.50;99.90;;;;;;5053869;28;20175;-44
2021/12/06 05:17:02;;;;;;;11.13;7.88;;;4.40;99.90;;;;;;5053899;28;20193;-44
2021/12/06 05:19:27;;;;;;;12.57;7.50;;;4.40;99.90;;;;;;5053973;28;20561;-44
2021/12/06 05:21:53;;;;;;;14.20;7.43;;;4.30;99.90;;;;;;5054186;28;20262;-45
2021/12/06 05:24:19;;;;;;;13.75;8.70;;;4.40;99.90;;;;;;5053695;28;20234;-45
2021/12/06 05:26:45;;;;;;;11.30;8.35;;;4.40;99.90;;;;;;5053726;28;20170;-46
2021/12/06 05:29:12;;;;;;;17.63;8.02;;;4.30;99.90;;;;;;5054000;28;20197;-44
2021/12/06 05:31:40;;;;;;;11.45;7.55;;;4.30;99.90;;;;;;5053672;28;20220;-44
2021/12/06 05:34:12;;;;;;;13.93;7.72;;;4.30;99.90;;;;;;5053834;28;20171;-44
2021/12/06 05:36:38;;;;;;;12.77;9.25;;;4.30;99.90;;;;;;5053375;28;20228;-45
2021/12/06 05:39:06;;;;;;;11.77;7.72;;;4.30;99.90;;;;;;5053478;28;20162;-45
2021/12/06 05:41:32;;;;;;;10.75;7.75;;;4.30;99.90;;;;;;5053715;28;20253;-44
2021/12/06 05:43:58;;;;;;;10.50;7.93;;;4.30;99.90;;;;;;5053213;28;20248;-45
2021/12/06 05:46:24;;;;;;;20.27;11.07;;;4.30;99.90;;;;;;5053989;28;20175;-45
2021/12/06 05:48:49;;;;;;;25.08;12.88;;;4.30;99.90;;;;;;5053354;28;20163;-45
2021/12/06 05:51:15;;;;;;;27.58;15.25;;;4.30;99.90;;;;;;5053235;28;20181;-45
2021/12/06 05:53:44;;;;;;;29.40;18.13;;;4.30;99.90;;;;;;5066974;28;20181;-45
2021/12/06 05:56:09;;;;;;;30.98;17.13;;;4.30;99.90;;;;;;5073103;28;20200;-44
2021/12/06 05:58:36;;;;;;;27.30;13.93;;;4.30;99.90;;;;;;5073084;28;20224;-45
2021/12/06 06:01:03;;;;;;;23.58;14.00;;;4.40;99.90;;;;;;5073115;28;20175;-45
2021/12/06 06:03:29;;;;;;;24.55;13.38;;;4.00;99.90;;;;;;5072949;28;20219;-44
2021/12/06 06:05:55;;;;;;;21.88;12.77;;;4.40;99.90;;;;;;5073260;28;20547;-44
2021/12/06 06:08:21;;;;;;;19.98;12.13;;;4.40;99.90;;;;;;5072743;28;20169;-44
2021/12/06 06:10:47;;;;;;;19.13;13.27;;;4.40;99.90;;;;;;5072932;28;20166;-44
2021/12/06 06:13:15;;;;;;;18.38;11.98;;;4.30;99.90;;;;;;5072809;28;20212;-44
2021/12/06 06:15:41;;;;;;;23.52;12.90;;;4.40;99.90;;;;;;5072780;28;20158;-45
2021/12/06 06:18:07;;;;;;;16.83;11.93;;;4.30;99.90;;;;;;5057982;28;20198;-45
2021/12/06 06:20:44;;;;;;;17.42;10.75;;;4.40;99.90;;;;;;5072774;28;20165;-45
2021/12/06 06:23:10;;;;;;;15.80;12.13;;;4.30;99.90;;;;;;5072521;28;20177;-45
2021/12/06 06:25:36;;;;;;;16.33;11.60;;;4.30;99.90;;;;;;5072441;28;20207;-44
2021/12/06 06:28:03;;;;;;;16.27;12.23;;;4.40;99.90;;;;;;5072704;28;20174;-46
2021/12/06 06:30:29;;;;;;;14.88;11.32;;;4.40;99.90;;;;;;5072376;28;20170;-44
2021/12/06 06:32:55;;;;;;;20.75;11.13;;;4.40;99.90;;;;;;5072581;28;20166;-45
2021/12/06 06:35:21;;;;;;;17.98;11.50;;;4.40;99.90;;;;;;5072282;28;20736;-44
2021/12/06 06:37:46;;;;;;;18.40;10.48;;;4.40;99.90;;;;;;5072462;28;20190;-44
2021/12/06 06:40:12;;;;;;;16.65;10.82;;;4.40;99.90;;;;;;5072228;28;20642;-44
2021/12/06 06:42:38;;;;;;;14.65;10.68;;;4.40;99.90;;;;;;5072179;28;20174;-44
2021/12/06 06:45:06;;;;;;;15.35;11.15;;;4.40;99.90;;;;;;5072079;28;20237;-44
2021/12/06 06:47:31;;;;;;;15.73;10.80;;;4.40;99.90;;;;;;5072192;28;20177;-45
2021/12/06 06:49:57;;;;;;;48.05;23.20;;;4.40;99.90;;;;;;5071469;28;20169;-45
2021/12/06 06:52:23;;;;;;;98.13;41.92;;;4.40;99.90;;;;;;5072416;28;20162;-44
2021/12/06 06:54:48;;;;;;;77.10;39.13;;;4.40;99.90;;;;;;5072251;28;20209;-44
2021/12/06 06:57:14;;;;;;;60.35;31.65;;;4.40;99.90;;;;;;5072098;28;20166;-45
2021/12/06 06:59:40;;;;;;;54.55;29.50;;;4.40;99.90;;;;;;5072153;28;20162;-45
2021/12/06 07:02:06;;;;;;;63.17;33.28;;;4.40;99.90;;;;;;5072096;28;20162;-44
2021/12/06 07:04:32;;;;;;;49.00;27.17;;;4.50;99.90;;;;;;5071918;28;20727;-45
2021/12/06 07:06:57;;;;;;;26.90;16.10;;;4.50;99.90;;;;;;5071926;28;20236;-45
2021/12/06 07:09:23;;;;;;;21.20;14.05;;;4.40;99.90;;;;;;5070975;28;20222;-45
2021/12/06 07:11:50;;;;;;;32.58;20.17;;;4.30;99.90;;;;;;5071985;28;20166;-44
2021/12/06 07:14:16;;;;;;;41.45;24.27;;;4.40;99.90;;;;;;5071910;28;20180;-45
2021/12/06 07:16:44;;;;;;;43.15;25.52;;;4.40;99.90;;;;;;5072132;28;20689;-45
2021/12/06 07:19:10;;;;;;;23.98;16.25;;;4.50;99.90;;;;;;5071813;28;20159;-45
2021/12/06 07:21:36;;;;;;;20.65;14.20;;;4.50;99.90;;;;;;5072048;28;20161;-45
2021/12/06 07:24:03;;;;;;;19.20;13.02;;;4.60;99.90;;;;;;5071801;28;20669;-45
2021/12/06 07:26:29;;;;;;;17.10;11.80;;;4.50;99.90;;;;;;5071993;28;20280;-46
2021/12/06 07:28:55;;;;;;;18.67;12.10;;;4.60;99.90;;;;;;5072024;28;20223;-45
2021/12/06 07:31:21;;;;;;;18.30;12.70;;;4.50;99.90;;;;;;5071811;28;20205;-45
2021/12/06 07:33:48;;;;;;;14.35;10.45;;;4.50;99.90;;;;;;5071680;28;20633;-46
2021/12/06 07:36:14;;;;;;;15.93;11.90;;;4.40;99.90;;;;;;5071676;28;20252;-45
2021/12/06 07:38:41;;;;;;;14.88;11.05;;;4.40;99.90;;;;;;5071701;28;20201;-45
2021/12/06 07:41:10;;;;;;;20.33;11.35;;;4.50;99.90;;;;;;5071632;28;20566;-45
2021/12/06 07:43:36;;;;;;;16.70;11.63;;;4.40;99.90;;;;;;5071515;28;20164;-45
2021/12/06 07:46:04;;;;;;;18.27;11.63;;;4.40;99.90;;;;;;5071642;28;20174;-45
2021/12/06 07:48:29;;;;;;;15.98;11.73;;;4.50;99.90;;;;;;5071679;28;20170;-45
2021/12/06 07:50:55;;;;;;;17.92;11.98;;;4.60;99.90;;;;;;5071989;28;20232;-44
2021/12/06 07:53:21;;;;;;;19.30;12.07;;;4.60;99.90;;;;;;5071523;28;20186;-46
2021/12/06 07:55:46;;;;;;;18.90;11.27;;;4.60;99.90;;;;;;5071510;28;20630;-45
2021/12/06 07:58:12;;;;;;;19.17;10.98;;;4.60;99.90;;;;;;5070166;28;20227;-46
2021/12/06 08:00:42;;;;;;;19.13;10.90;;;4.60;99.90;;;;;;5072233;28;20170;-45
2021/12/06 08:03:08;;;;;;;17.85;11.60;;;4.70;99.90;;;;;;5074368;28;20177;-45
2021/12/06 08:05:36;;;;;;;16.88;10.90;;;4.70;99.90;;;;;;5073974;28;20257;-45
2021/12/06 08:08:02;;;;;;;16.00;10.65;;;4.70;99.90;;;;;;5074120;28;20243;-45
2021/12/06 08:10:28;;;;;;;16.85;10.00;;;4.90;99.90;;;;;;5073915;28;20638;-43
2021/12/06 08:12:53;;;;;;;21.02;10.32;;;4.80;99.90;;;;;;5074016;28;20270;-42
2021/12/06 08:15:20;;;;;;;17.40;9.20;;;5.00;99.90;;;;;;5073824;28;20192;-46
2021/12/06 08:17:45;;;;;;;14.38;9.00;;;4.90;99.90;;;;;;5073604;28;20170;-46
2021/12/06 08:20:12;;;;;;;18.08;10.38;;;4.80;99.90;;;;;;5073535;28;20169;-44
2021/12/06 08:22:38;;;;;;;18.73;11.43;;;4.80;99.90;;;;;;5073794;28;20200;-46
2021/12/06 08:25:05;;;;;;;18.35;11.45;;;4.80;99.90;;;;;;5073732;28;20673;-45
2021/12/06 08:27:31;;;;;;;22.38;13.18;;;4.80;99.90;;;;;;5073810;28;20193;-43
2021/12/06 08:29:56;;;;;;;20.52;13.07;;;4.90;99.90;;;;;;5073486;28;20201;-44
2021/12/06 08:32:22;;;;;;;22.42;14.75;;;5.00;99.90;;;;;;5072460;28;20181;-43
2021/12/06 08:34:47;;;;;;;29.13;16.10;;;5.10;99.90;;;;;;5073377;28;20165;-45
2021/12/06 08:37:13;;;;;;;28.35;16.45;;;5.20;99.90;;;;;;5073296;28;20162;-45
2021/12/06 08:39:39;;;;;;;25.50;15.70;;;5.20;99.90;;;;;;5073331;28;20170;-45
2021/12/06 08:42:06;;;;;;;25.80;15.45;;;5.20;99.90;;;;;;5073295;28;20185;-44
2021/12/06 08:44:33;;;;;;;32.70;17.05;;;5.10;99.90;;;;;;5071698;28;20208;-46
2021/12/06 08:46:58;;;;;;;29.92;18.80;;;4.90;99.90;;;;;;5073442;28;20162;-44
2021/12/06 08:49:25;;;;;;;30.02;17.05;;;4.90;99.90;;;;;;5073705;28;20162;-46
2021/12/06 08:51:54;;;;;;;32.53;18.42;;;4.90;99.90;;;;;;5072942;28;20181;-48
2021/12/06 08:54:20;;;;;;;34.50;19.75;;;4.90;99.90;;;;;;5072940;28;20154;-45
2021/12/06 08:56:48;;;;;;;33.53;20.02;;;4.90;99.90;;;;;;5072812;28;20170;-45
2021/12/06 08:59:14;;;;;;;37.28;20.80;;;5.00;99.90;;;;;;5072832;28;20170;-44
2021/12/06 09:01:40;;;;;;;40.78;19.27;;;5.00;99.90;;;;;;5072800;28;20175;-45
2021/12/06 09:04:09;;;;;;;51.70;21.10;;;4.80;99.90;;;;;;5071386;28;20277;-43
2021/12/06 09:06:36;;;;;;;40.60;18.90;;;4.80;99.90;;;;;;5072787;28;20617;-45
2021/12/06 09:09:05;;;;;;;46.72;20.83;;;4.80;99.90;;;;;;5072665;28;20301;-44
2021/12/06 09:11:31;;;;;;;45.83;19.92;;;4.80;99.90;;;;;;5072390;28;20170;-44
2021/12/06 09:13:56;;;;;;;52.25;23.23;;;4.90;99.90;;;;;;5072501;28;20173;-45
2021/12/06 09:16:22;;;;;;;45.17;21.83;;;4.90;99.90;;;;;;5072734;28;20170;-45
2021/12/06 09:18:48;;;;;;;44.70;22.42;;;5.00;99.90;;;;;;5072511;28;20172;-45
2021/12/06 09:21:17;;;;;;;51.50;21.38;;;4.90;99.90;;;;;;5072747;28;20228;-46
2021/12/06 09:23:44;;;;;;;67.70;24.38;;;4.90;99.90;;;;;;5071111;28;20561;-47
2021/12/06 09:26:11;;;;;;;40.85;22.25;;;4.90;99.90;;;;;;5072373;28;20231;-46
2021/12/06 09:28:37;;;;;;;45.30;21.83;;;5.00;99.90;;;;;;5072364;28;20170;-43
2021/12/06 09:31:04;;;;;;;45.33;23.52;;;5.00;99.90;;;;;;5072255;28;20186;-44
2021/12/06 09:33:32;;;;;;;45.65;21.70;;;5.00;99.90;;;;;;5072488;28;20529;-44
2021/12/06 09:35:59;;;;;;;44.28;22.13;;;5.00;99.90;;;;;;5072170;28;20166;-44
2021/12/06 09:38:28;;;;;;;48.63;22.67;;;4.90;99.90;;;;;;5072621;28;20524;-44
2021/12/06 09:40:56;;;;;;;42.90;22.98;;;5.00;99.90;;;;;;5072284;28;20563;-44
2021/12/06 09:43:23;;;;;;;40.10;22.70;;;5.00;99.90;;;;;;5072631;28;20174;-47
2021/12/06 09:45:49;;;;;;;39.97;22.50;;;5.10;99.90;;;;;;5071962;28;20231;-47
2021/12/06 09:48:17;;;;;;;39.90;20.33;;;5.10;99.90;;;;;;5071907;28;20181;-44
2021/12/06 09:50:54;;;;;;;39.80;20.85;;;5.00;99.90;;;;;;5071998;28;20169;-45
2021/12/06 09:53:22;;;;;;;39.15;23.30;;;5.00;99.90;;;;;;5072107;28;20191;-44
2021/12/06 09:55:50;;;;;;;37.78;21.63;;;5.10;99.90;;;;;;5071805;28;20228;-44
2021/12/06 09:58:16;;;;;;;46.55;22.55;;;5.20;99.90;;;;;;5071625;28;20178;-44
2021/12/06 10:00:47;;;;;;;44.85;23.90;;;5.10;99.90;;;;;;5071650;28;20178;-46
2021/12/06 10:03:18;;;;;;;46.03;24.95;;;5.30;99.90;;;;;;5071668;28;20276;-44
2021/12/06 10:05:44;;;;;;;38.20;20.83;;;5.40;99.90;;;;;;5071741;28;20209;-45
2021/12/06 10:08:09;;;;;;;39.92;20.58;;;5.30;99.90;;;;;;5071621;28;20556;-44
2021/12/06 10:10:36;;;;;;;37.72;22.45;;;5.40;99.90;;;;;;5071555;28;20170;-44
2021/12/06 10:13:03;;;;;;;40.60;21.25;;;5.40;99.90;;;;;;5071804;28;20170;-46
2021/12/06 10:15:30;;;;;;;58.45;24.25;;;5.30;99.90;;;;;;5071608;28;20181;-45
2021/12/06 10:17:59;;;;;;;41.50;22.15;;;5.20;99.90;;;;;;5071604;28;20253;-45
2021/12/06 10:20:26;;;;;;;40.75;20.45;;;5.20;99.90;;;;;;5071533;28;20173;-45
2021/12/06 10:22:54;;;;;;;35.35;20.20;;;5.00;99.90;;;;;;5070820;28;20174;-44
2021/12/06 10:25:21;;;;;;;30.15;18.20;;;5.30;99.90;;;;;;5070777;28;20201;-44
2021/12/06 10:27:55;;;;;;;27.83;16.98;;;5.20;99.90;;;;;;5071239;28;20185;-46
2021/12/06 10:30:23;;;;;;;30.63;16.15;;;5.10;99.90;;;;;;5071252;28;20575;-46
2021/12/06 10:32:48;;;;;;;28.27;16.95;;;5.10;99.90;;;;;;5071032;28;20189;-46
2021/12/06 10:35:16;;;;;;;26.77;16.30;;;5.00;99.90;;;;;;5069963;28;20630;-46
2021/12/06 10:37:57;;;;;;;30.92;17.20;;;4.90;99.90;;;;;;5071139;28;20249;-47
2021/12/06 10:40:33;;;;;;;26.30;16.40;;;5.00;99.90;;;;;;5071180;28;20197;-46
2021/12/06 10:43:02;;;;;;;22.33;13.90;;;5.00;99.90;;;;;;5070915;28;20169;-46
2021/12/06 10:45:32;;;;;;;22.23;13.95;;;5.00;99.90;;;;;;5070814;28;20256;-45
2021/12/06 10:48:18;;;;;;;29.35;15.43;;;5.00;99.90;;;;;;5071228;28;20586;-44
2021/12/06 10:50:54;;;;;;;23.98;15.27;;;5.00;99.90;;;;;;5071115;28;20284;-46
2021/12/06 10:53:27;;;;;;;23.08;14.20;;;5.30;99.90;;;;;;5070976;28;20166;-43
2021/12/06 10:55:55;;;;;;;28.33;14.23;;;5.30;99.90;;;;;;5071462;28;20174;-46
2021/12/06 10:58:25;;;;;;;27.95;16.05;;;5.20;99.90;;;;;;5070725;28;20170;-41
2021/12/06 11:00:56;;;;;;;27.00;15.55;;;5.10;99.90;;;;;;5070480;28;20652;-45
2021/12/06 11:03:35;;;;;;;26.48;15.20;;;5.20;99.90;;;;;;5071491;28;20170;-45
2021/12/06 11:06:13;;;;;;;26.10;16.25;;;5.20;99.90;;;;;;5070586;28;20201;-45
2021/12/06 11:08:40;;;;;;;28.60;16.20;;;5.30;99.90;;;;;;5070309;28;20693;-46
2021/12/06 11:11:22;;;;;;;32.53;16.70;;;5.40;99.90;;;;;;5070425;28;20630;-44
2021/12/06 11:13:50;;;;;;;32.20;16.30;;;5.40;99.90;;;;;;5059763;28;20174;-45
2021/12/06 11:16:17;;;;;;;33.45;17.83;;;5.20;99.90;;;;;;5064473;28;20220;-45
2021/12/06 11:18:42;;;;;;;30.10;17.48;;;5.20;99.90;;;;;;5070406;28;20166;-47
2021/12/06 11:21:42;;;;;;;31.60;18.40;;;5.30;99.90;;;;;;5070761;28;20178;-45
2021/12/06 11:24:16;;;;;;;28.33;15.35;;;5.30;99.90;;;;;;5070842;28;20213;-45
2021/12/06 11:26:51;;;;;;;29.98;17.90;;;5.10;99.90;;;;;;5070885;28;20181;-45
2021/12/06 11:29:38;;;;;;;31.60;16.52;;;5.00;99.90;;;;;;5070358;28;20165;-47
2021/12/06 11:32:19;;;;;;;31.05;18.10;;;5.00;99.90;;;;;;5070622;28;20158;-45
2021/12/06 11:34:52;;;;;;;30.10;16.42;;;5.00;99.90;;;;;;5070528;28;20200;-49
2021/12/06 11:37:38;;;;;;;37.30;19.27;;;5.10;99.90;;;;;;5074522;28;20158;-47
2021/12/06 11:40:17;;;;;;;37.90;20.88;;;5.10;99.90;;;;;;5074043;28;20720;-48
2021/12/06 11:43:00;;;;;;;32.05;17.63;;;5.20;99.90;;;;;;5074032;28;20174;-48
2021/12/06 11:45:51;;;;;;;30.30;19.38;;;5.20;99.90;;;;;;5074933;28;20210;-45
2021/12/06 11:48:26;;;;;;;37.47;19.90;;;5.20;99.90;;;;;;5066959;28;20185;-45
2021/12/06 11:50:55;;;;;;;35.50;20.50;;;5.20;99.90;;;;;;5074517;28;20169;-46
2021/12/06 11:53:27;;;;;;;32.13;19.58;;;5.30;99.90;;;;;;5073892;28;20630;-46
2021/12/06 11:55:59;;;;;;;35.33;19.67;;;5.20;99.90;;;;;;5074410;28;20195;-46
2021/12/06 11:58:37;;;;;;;36.17;20.48;;;5.30;99.90;;;;;;5074378;28;20604;-47
2021/12/06 12:01:28;;;;;;;40.08;20.48;;;5.20;99.90;;;;;;5072998;28;20694;-46
2021/12/06 12:03:58;;;;;;;32.75;19.13;;;5.20;99.90;;;;;;5074393;28;20177;-47
2021/12/06 12:06:49;;;;;;;31.83;18.98;;;5.10;99.90;;;;;;5064987;28;20676;-45
2021/12/06 12:09:20;;;;;;;33.75;19.80;;;5.10;99.90;;;;;;5050600;28;20518;-47
2021/12/06 12:12:03;;;;;;;32.00;17.92;;;5.10;99.90;;;;;;5053435;28;20174;-47
2021/12/06 12:14:40;;;;;;;32.28;18.42;;;5.00;99.90;;;;;;5052776;28;20167;-44
2021/12/06 12:17:11;;;;;;;29.92;16.58;;;5.10;99.90;;;;;;5053814;28;20166;-47
2021/12/06 12:19:39;;;;;;;26.17;15.55;;;5.10;99.90;;;;;;5053355;28;20175;-45
2021/12/06 12:22:05;;;;;;;28.73;15.77;;;5.10;99.90;;;;;;5053388;28;20190;-46
2021/12/06 12:24:32;;;;;;;23.80;15.18;;;5.10;99.90;;;;;;5053680;28;20246;-47
2021/12/06 12:27:04;;;;;;;25.95;14.82;;;5.10;99.90;;;;;;5053568;28;20177;-45
2021/12/06 12:29:30;;;;;;;28.02;15.60;;;5.10;99.90;;;;;;5053398;28;20182;-46
2021/12/06 12:32:00;;;;;;;28.05;15.88;;;5.10;99.90;;;;;;5052550;28;20602;-46
2021/12/06 12:34:27;;;;;;;26.80;14.55;;;5.20;99.90;;;;;;5066744;28;20576;-46
2021/12/06 12:36:54;;;;;;;24.33;15.18;;;5.20;99.90;;;;;;5073708;28;20192;-46
2021/12/06 12:39:20;;;;;;;26.63;15.63;;;5.30;99.90;;;;;;5073097;28;20713;-46
2021/12/06 12:41:57;;;;;;;21.35;15.02;;;5.30;99.90;;;;;;5073527;28;20170;-48
2021/12/06 12:44:24;;;;;;;25.23;14.43;;;5.20;99.90;;;;;;5073726;28;20243;-47
2021/12/06 12:46:53;;;;;;;28.80;14.00;;;5.10;99.90;;;;;;5072244;28;20167;-47
2021/12/06 12:49:23;;;;;;;24.48;14.50;;;5.10;99.90;;;;;;5073559;28;20177;-46
2021/12/06 12:51:55;;;;;;;26.27;14.75;;;5.10;99.90;;;;;;5073533;28;20220;-47
2021/12/06 12:54:28;;;;;;;26.55;14.68;;;5.10;99.90;;;;;;5073157;28;20170;-47
2021/12/06 12:57:06;;;;;;;25.77;14.15;;;5.10;99.90;;;;;;5073256;28;20178;-47
2021/12/06 12:59:42;;;;;;;22.75;14.60;;;5.20;99.90;;;;;;5073009;28;20649;-47
2021/12/06 13:02:24;;;;;;;22.85;14.98;;;5.30;99.90;;;;;;5073060;28;20165;-48